Time;durP1;ratioP1;P1;durP2;ratioP2;P2;SDS_P1;SDS_P2;PMS_P1;PMS_P2;Temp;Humidity;BMP_temperature;BMP_pressure;BME280_temperature;BME280_humidity;BME280_pressure;Samples;Min_cycle;Max_cycle;Signal;HPM_P1;HPM_P2
2021/05/14 00:00:08;;;;;;;5.50;3.55;;;;;;;10.77;67.12;100535.41;5049978;28;20049;-46
2021/05/14 00:02:36;;;;;;;5.72;3.22;;;;;;;10.77;67.01;100535.41;5050072;28;20136;-46
2021/05/14 00:05:03;;;;;;;7.32;4.10;;;;;;;10.84;66.81;100541.13;5050669;28;20072;-46
2021/05/14 00:07:31;;;;;;;13.48;4.15;;;;;;;10.81;67.08;100530.75;5050930;28;20044;-48
2021/05/14 00:09:58;;;;;;;8.02;3.83;;;;;;;10.84;67.17;100547.47;5050816;28;20076;-49
2021/05/14 00:12:25;;;;;;;9.98;4.15;;;;;;;10.99;67.15;100551.44;5050516;28;20047;-49
2021/05/14 00:14:51;;;;;;;13.80;4.13;;;;;;;10.98;67.05;100550.66;5050840;28;20136;-48
2021/05/14 00:17:18;;;;;;;9.82;4.78;;;;;;;11.07;67.00;100547.72;5050855;28;20091;-47
2021/05/14 00:19:45;;;;;;;10.80;3.70;;;;;;;11.14;67.15;100538.81;5050808;28;20522;-50
2021/05/14 00:22:12;;;;;;;10.77;4.40;;;;;;;11.17;67.16;100538.13;5050494;28;20052;-45
2021/05/14 00:24:39;;;;;;;9.65;4.47;;;;;;;11.30;66.90;100548.78;5052120;28;20045;-47
2021/05/14 00:27:06;;;;;;;9.82;3.92;;;;;;;11.29;66.95;100535.25;5050168;28;20052;-46
2021/05/14 00:29:32;;;;;;;9.38;3.88;;;;;;;11.23;67.07;100531.94;5051307;28;20414;-48
2021/05/14 00:32:00;;;;;;;11.57;4.95;;;;;;;11.13;67.44;100532.47;5050532;28;20080;-48
2021/05/14 00:34:28;;;;;;;11.00;4.57;;;;;;;11.02;67.87;100531.34;5050540;28;20087;-46
2021/05/14 00:36:55;;;;;;;8.68;4.63;;;;;;;11.01;67.70;100535.31;5050352;28;20037;-46
2021/05/14 00:39:21;;;;;;;9.25;4.82;;;;;;;11.05;67.51;100536.19;5049891;28;20114;-45
2021/05/14 00:41:48;;;;;;;8.45;4.50;;;;;;;11.06;67.30;100532.28;5055989;28;20075;-47
2021/05/14 00:44:31;;;;;;;6.43;4.40;;;;;;;11.00;67.52;100533.69;5050475;28;20106;-47
2021/05/14 00:47:00;;;;;;;6.90;4.45;;;;;;;10.95;67.29;100526.44;5050627;28;20449;-47
2021/05/14 00:49:29;;;;;;;14.10;6.00;;;;;;;10.81;67.60;100526.03;5051072;28;20049;-47
2021/05/14 00:51:57;;;;;;;7.80;3.53;;;;;;;10.70;68.09;100540.72;5050220;28;20433;-46
2021/05/14 00:54:30;;;;;;;29.02;5.90;;;;;;;10.58;68.37;100530.50;5049906;28;20048;-48
2021/05/14 00:56:58;;;;;;;11.60;5.32;;;;;;;10.55;68.36;100535.91;5049964;28;20084;-46
2021/05/14 00:59:26;;;;;;;14.00;4.78;;;;;;;10.41;68.56;100525.22;5050207;28;20040;-46
2021/05/14 01:01:53;;;;;;;9.80;4.03;;;;;;;10.35;68.86;100521.88;5050032;28;20441;-46
2021/05/14 01:04:20;;;;;;;9.73;4.22;;;;;;;10.27;69.08;100522.81;5049144;28;20195;-46
2021/05/14 01:06:47;;;;;;;12.25;4.32;;;;;;;10.19;69.18;100518.22;5049860;28;20128;-46
2021/05/14 01:09:14;;;;;;;9.23;6.07;;;;;;;10.14;69.20;100520.44;5050248;28;20049;-46
2021/05/14 01:11:41;;;;;;;14.93;5.03;;;;;;;10.09;69.39;100515.09;5050612;28;20128;-45
2021/05/14 01:14:09;;;;;;;12.95;4.45;;;;;;;10.03;69.49;100511.78;5050182;28;20136;-47
2021/05/14 01:16:36;;;;;;;15.73;4.95;;;;;;;10.01;69.51;100518.78;5055050;28;20057;-45
2021/05/14 01:19:04;;;;;;;10.68;4.32;;;;;;;9.98;69.60;100514.75;5050536;28;20045;-46
2021/05/14 01:21:31;;;;;;;13.63;5.43;;;;;;;9.95;69.41;100498.88;5050648;28;20049;-46
2021/05/14 01:23:58;;;;;;;9.25;4.50;;;;;;;9.91;69.41;100506.25;5032025;28;20098;-47
2021/05/14 01:26:26;;;;;;;7.47;4.80;;;;;;;9.81;69.64;100495.66;5050391;28;20052;-48
2021/05/14 01:28:54;;;;;;;12.30;5.18;;;;;;;9.75;69.72;100497.03;5051044;28;20600;-46
2021/05/14 01:31:22;;;;;;;9.35;6.25;;;;;;;9.74;69.83;100503.72;5050800;28;20052;-47
2021/05/14 01:33:49;;;;;;;13.60;6.30;;;;;;;9.74;69.88;100506.50;5050812;28;20139;-50
2021/05/14 01:36:18;;;;;;;10.77;5.95;;;;;;;9.69;69.77;100495.63;5050088;28;20075;-47
2021/05/14 01:38:46;;;;;;;8.75;5.05;;;;;;;9.68;69.74;100502.31;5049667;28;20087;-46
2021/05/14 01:41:13;;;;;;;10.75;6.03;;;;;;;9.78;69.33;100501.88;5049507;28;20103;-46
2021/05/14 01:43:39;;;;;;;10.75;6.05;;;;;;;9.69;69.63;100503.91;5053529;28;20102;-47
2021/05/14 01:46:06;;;;;;;10.95;6.07;;;;;;;9.65;69.66;100500.25;5053134;28;20116;-51
2021/05/14 01:48:33;;;;;;;12.40;6.07;;;;;;;9.57;69.94;100492.88;5035255;28;20079;-50
2021/05/14 01:51:08;;;;;;;11.35;5.35;;;;;;;9.49;70.04;100494.59;5053646;28;20132;-46
2021/05/14 01:53:35;;;;;;;10.30;5.53;;;;;;;9.50;70.04;100493.47;5053307;28;20470;-48
2021/05/14 01:56:03;;;;;;;13.45;6.07;;;;;;;9.50;70.23;100498.19;5052344;28;20041;-46
2021/05/14 01:58:33;;;;;;;9.00;5.57;;;;;;;9.48;70.42;100494.94;5051575;28;20095;-47
2021/05/14 02:00:59;;;;;;;12.75;5.57;;;;;;;9.45;70.38;100504.72;5049518;28;20102;-49
2021/05/14 02:03:26;;;;;;;12.60;7.60;;;;;;;9.43;70.43;100489.63;5052431;28;20107;-46
2021/05/14 02:05:53;;;;;;;14.13;6.75;;;;;;;9.42;70.31;100490.78;5054248;28;20068;-46
2021/05/14 02:08:20;;;;;;;14.50;5.47;;;;;;;9.41;70.34;100494.69;5060018;28;20136;-46
2021/05/14 02:10:47;;;;;;;11.18;5.38;;;;;;;9.40;70.39;100493.88;5052064;28;20110;-52
2021/05/14 02:13:14;;;;;;;7.15;4.80;;;;;;;9.37;70.59;100497.34;5053870;28;20142;-46
2021/05/14 02:15:40;;;;;;;9.10;4.93;;;;;;;9.39;70.35;100488.72;5051808;28;20463;-48
2021/05/14 02:18:08;;;;;;;10.65;5.65;;;;;;;9.36;70.60;100489.41;5053398;28;20398;-48
2021/05/14 02:20:34;;;;;;;9.95;4.95;;;;;;;9.31;70.93;100492.38;5053270;28;20131;-50
2021/05/14 02:23:01;;;;;;;11.05;5.57;;;;;;;9.28;70.87;100491.13;5056015;28;20513;-45
2021/05/14 02:25:28;;;;;;;10.40;5.78;;;;;;;9.28;70.81;100493.06;5058845;28;20040;-46
2021/05/14 02:27:55;;;;;;;9.38;5.38;;;;;;;9.29;70.99;100491.94;5054432;28;20428;-50
2021/05/14 02:30:22;;;;;;;9.98;5.00;;;;;;;9.31;71.19;100495.97;5051344;28;20544;-49
2021/05/14 02:32:49;;;;;;;9.07;5.15;;;;;;;9.34;71.02;100486.19;5035002;28;20048;-48
2021/05/14 02:35:16;;;;;;;8.57;5.25;;;;;;;9.36;71.28;100487.44;5052569;28;20068;-53
2021/05/14 02:37:43;;;;;;;6.95;4.85;;;;;;;9.39;71.28;100474.91;5052452;28;20098;-48
2021/05/14 02:40:12;;;;;;;7.50;4.38;;;;;;;9.44;71.31;100477.44;5034836;28;20033;-48
2021/05/14 02:42:38;;;;;;;6.63;4.60;;;;;;;9.50;71.05;100476.06;5051423;28;20091;-50
2021/05/14 02:45:06;;;;;;;7.50;4.53;;;;;;;9.42;71.13;100472.25;5032687;28;20049;-47
2021/05/14 02:47:33;;;;;;;6.55;4.30;;;;;;;9.38;71.69;100484.31;5051748;28;20444;-51
2021/05/14 02:50:01;;;;;;;6.00;3.95;;;;;;;9.38;71.62;100476.03;5034615;28;20388;-47
2021/05/14 02:52:27;;;;;;;9.02;5.20;;;;;;;9.44;71.51;100471.91;5052303;28;20137;-51
2021/05/14 02:54:54;;;;;;;5.70;4.35;;;;;;;9.43;71.59;100473.06;5051466;28;20040;-51
2021/05/14 02:57:23;;;;;;;7.15;4.53;;;;;;;9.45;71.65;100477.09;5052494;28;20051;-48
2021/05/14 02:59:49;;;;;;;6.13;4.50;;;;;;;9.43;71.59;100475.81;5050926;28;20076;-45
2021/05/14 03:02:16;;;;;;;7.90;4.45;;;;;;;9.38;71.93;100484.31;5051167;28;20098;-47
2021/05/14 03:04:43;;;;;;;6.80;3.70;;;;;;;9.33;72.10;100482.59;5052546;28;20045;-49
2021/05/14 03:07:10;;;;;;;6.55;4.35;;;;;;;9.35;72.11;100473.97;5051988;28;20128;-46
2021/05/14 03:09:37;;;;;;;6.35;3.90;;;;;;;9.35;72.28;100480.28;5050786;28;20040;-50
2021/05/14 03:12:04;;;;;;;8.88;4.95;;;;;;;9.37;72.15;100485.50;5050356;28;20048;-48
2021/05/14 03:14:31;;;;;;;6.43;5.07;;;;;;;9.37;72.32;100483.50;5059554;28;20867;-52
2021/05/14 03:16:59;;;;;;;5.93;3.60;;;;;;;9.36;72.23;100473.63;5057364;28;20095;-47
2021/05/14 03:19:26;;;;;;;5.22;3.65;;;;;;;9.35;72.28;100485.00;5052037;28;20482;-49
2021/05/14 03:21:54;;;;;;;7.15;4.15;;;;;;;9.29;72.49;100478.94;5033368;28;20080;-48
2021/05/14 03:24:23;;;;;;;5.82;4.30;;;;;;;9.28;72.68;100484.78;5051455;28;20044;-46
2021/05/14 03:26:53;;;;;;;5.15;3.70;;;;;;;9.27;72.79;100480.38;5051698;28;20147;-49
2021/05/14 03:29:21;;;;;;;8.05;4.22;;;;;;;9.25;72.91;100479.94;5052978;28;20079;-46
2021/05/14 03:31:48;;;;;;;6.78;3.53;;;;;;;9.27;72.88;100474.88;5051727;28;20059;-47
2021/05/14 03:34:15;;;;;;;6.10;4.15;;;;;;;9.25;72.86;100482.69;5051234;28;20075;-47
2021/05/14 03:36:42;;;;;;;4.78;3.40;;;;;;;9.25;73.04;100474.41;5051607;28;20843;-46
2021/05/14 03:39:09;;;;;;;3.72;2.97;;;;;;;9.26;72.89;100474.09;5050612;28;20037;-47
2021/05/14 03:42:04;;;;;;;5.40;3.40;;;;;;;9.27;72.88;100480.38;5051310;28;20736;-47
2021/05/14 03:44:32;;;;;;;5.65;3.88;;;;;;;9.21;73.01;100482.59;5050580;28;20134;-47
2021/05/14 03:46:59;;;;;;;6.35;3.53;;;;;;;9.17;73.29;100476.13;5051605;28;20045;-48
2021/05/14 03:49:27;;;;;;;5.75;4.00;;;;;;;9.16;73.17;100478.06;5051671;28;20526;-50
2021/05/14 03:51:53;;;;;;;5.05;4.20;;;;;;;9.17;73.23;100478.88;5050979;28;20158;-46
2021/05/14 03:54:21;;;;;;;6.30;4.50;;;;;;;9.13;73.53;100477.97;5050670;28;20120;-46
2021/05/14 03:56:49;;;;;;;4.55;3.80;;;;;;;9.13;73.49;100467.72;5050784;28;20106;-47
2021/05/14 03:59:16;;;;;;;5.65;3.25;;;;;;;9.09;73.69;100472.31;5050734;28;20548;-46
2021/05/14 04:01:43;;;;;;;4.25;3.30;;;;;;;9.07;73.71;100474.63;5050713;28;20428;-48
2021/05/14 04:04:10;;;;;;;3.72;3.33;;;;;;;9.07;73.92;100465.53;5051019;28;20120;-47
2021/05/14 04:06:37;;;;;;;6.03;4.05;;;;;;;9.06;73.85;100466.66;5051325;28;20103;-51
2021/05/14 04:09:05;;;;;;;6.72;4.28;;;;;;;9.03;74.02;100468.16;5050515;28;20049;-47
2021/05/14 04:16:50;;;;;;;6.13;3.33;;;;;;;9.00;73.96;100457.78;5050403;28;20045;-50
2021/05/14 04:19:18;;;;;;;4.25;3.05;;;;;;;8.94;74.32;100472.16;5051135;28;20104;-50
2021/05/14 04:21:45;;;;;;;6.50;3.70;;;;;;;8.95;74.36;100469.06;5051148;28;20076;-49
2021/05/14 04:24:12;;;;;;;4.90;3.30;;;;;;;8.97;74.03;100457.69;5050812;28;20049;-49
2021/05/14 04:26:39;;;;;;;6.35;3.65;;;;;;;8.95;74.07;100463.53;5050545;28;20069;-48
2021/05/14 04:29:06;;;;;;;6.20;3.20;;;;;;;8.90;74.37;100463.75;5051627;28;20041;-49
2021/05/14 04:31:32;;;;;;;5.53;3.40;;;;;;;8.90;74.41;100457.41;5050517;28;20450;-53
2021/05/14 04:34:00;;;;;;;5.22;3.80;;;;;;;8.88;74.45;100455.00;5050828;28;20066;-49
2021/05/14 04:36:27;;;;;;;7.57;4.85;;;;;;;8.87;74.50;100458.91;5050390;28;20131;-46
2021/05/14 04:38:54;;;;;;;5.68;3.55;;;;;;;8.86;74.31;100462.03;5051692;28;20076;-45
2021/05/14 04:41:21;;;;;;;6.47;3.67;;;;;;;8.81;74.66;100465.81;5049812;28;20081;-47
2021/05/14 04:43:47;;;;;;;5.68;3.28;;;;;;;8.80;74.62;100466.94;5050632;28;20486;-51
2021/05/14 04:46:15;;;;;;;6.03;3.83;;;;;;;8.74;75.03;100471.06;5050542;28;20052;-48
2021/05/14 04:48:55;;;;;;;4.68;3.53;;;;;;;8.69;75.12;100479.53;5050617;28;20068;-50
2021/05/14 04:51:25;;;;;;;6.85;4.20;;;;;;;8.66;75.56;100477.47;5050331;28;20277;-49
2021/05/14 04:53:55;;;;;;;6.72;4.63;;;;;;;8.68;75.31;100483.47;5049797;28;20041;-51
2021/05/14 04:56:22;;;;;;;5.53;3.65;;;;;;;8.66;75.27;100480.22;5051327;28;20068;-49
2021/05/14 04:58:50;;;;;;;5.63;3.58;;;;;;;8.66;75.40;100474.69;5050103;28;20084;-47
2021/05/14 05:01:18;;;;;;;5.88;3.40;;;;;;;8.63;75.66;100480.09;5049236;28;20037;-47
2021/05/14 05:03:55;;;;;;;4.65;3.63;;;;;;;8.66;75.59;100471.94;5049938;28;20061;-45
2021/05/14 05:06:22;;;;;;;4.65;3.78;;;;;;;8.71;75.45;100477.25;5049991;28;20076;-50
2021/05/14 05:08:51;;;;;;;4.85;3.70;;;;;;;8.70;75.54;100470.13;5050351;28;20405;-46
2021/05/14 05:11:17;;;;;;;5.53;4.50;;;;;;;8.72;75.50;100476.13;5049003;28;20044;-45
2021/05/14 05:13:44;;;;;;;6.07;4.13;;;;;;;8.68;75.88;100466.09;5051149;28;20083;-48
2021/05/14 05:16:11;;;;;;;6.07;3.42;;;;;;;8.72;75.50;100478.88;5049836;28;20049;-47
2021/05/14 05:18:38;;;;;;;4.70;3.58;;;;;;;8.68;75.72;100469.66;5054008;28;20459;-50
2021/05/14 05:21:05;;;;;;;6.43;4.13;;;;;;;8.66;76.05;100476.69;5054072;28;20083;-47
2021/05/14 05:23:32;;;;;;;4.80;3.88;;;;;;;8.64;76.29;100477.00;5053524;28;20406;-45
2021/05/14 05:25:59;;;;;;;5.20;3.28;;;;;;;8.66;76.26;100477.47;5053395;28;20122;-45
2021/05/14 05:28:29;;;;;;;4.60;3.33;;;;;;;8.69;76.45;100489.78;5054836;28;20048;-46
2021/05/14 05:30:56;;;;;;;5.88;3.85;;;;;;;8.65;76.62;100475.06;5055020;28;20102;-45
2021/05/14 05:33:26;;;;;;;4.78;4.03;;;;;;;8.64;76.72;100477.00;5053853;28;20041;-48
2021/05/14 05:35:54;;;;;;;8.75;3.63;;;;;;;8.68;76.85;100486.22;5053387;28;20037;-45
2021/05/14 05:38:24;;;;;;;5.15;3.60;;;;;;;8.69;76.88;100479.53;5053260;28;20079;-47
2021/05/14 05:40:52;;;;;;;4.97;3.97;;;;;;;8.73;76.97;100494.31;5052704;28;20053;-46
2021/05/14 05:43:19;;;;;;;8.35;4.45;;;;;;;8.79;76.71;100489.38;5054354;28;20095;-45
2021/05/14 05:45:46;;;;;;;6.93;3.97;;;;;;;8.83;77.07;100490.31;5053317;28;20090;-48
2021/05/14 05:48:13;;;;;;;4.15;3.45;;;;;;;8.84;76.90;100492.72;5066726;28;20044;-47
2021/05/14 05:50:42;;;;;;;6.82;4.50;;;;;;;8.88;76.64;100477.09;5055891;28;20045;-46
2021/05/14 05:53:09;;;;;;;6.47;4.68;;;;;;;8.88;77.21;100482.63;5052882;28;20102;-47
2021/05/14 05:55:37;;;;;;;5.03;3.78;;;;;;;8.94;76.72;100484.03;5052471;28;20433;-47
2021/05/14 05:58:09;;;;;;;5.60;4.88;;;;;;;8.97;76.94;100497.16;5053464;28;20049;-50
2021/05/14 06:00:36;;;;;;;5.50;3.88;;;;;;;9.07;76.50;100496.72;5052117;28;20049;-48
2021/05/14 06:03:04;;;;;;;10.10;5.45;;;;;;;9.15;76.47;100493.06;5053736;28;20076;-46
2021/05/14 06:05:31;;;;;;;7.18;5.72;;;;;;;9.14;76.73;100496.94;5052503;28;20099;-46
2021/05/14 06:07:57;;;;;;;8.32;4.90;;;;;;;9.16;76.81;100494.66;5053512;28;20061;-45
2021/05/14 06:10:25;;;;;;;8.82;5.10;;;;;;;9.18;76.79;100508.13;5052689;28;20110;-47
2021/05/14 06:12:52;;;;;;;8.30;5.50;;;;;;;9.24;76.65;100494.91;5052948;28;20095;-49
2021/05/14 06:15:19;;;;;;;8.75;6.05;;;;;;;9.24;76.91;100495.69;5052859;28;20056;-53
2021/05/14 06:17:46;;;;;;;8.60;5.75;;;;;;;9.22;77.04;100500.75;5053022;28;20079;-48
2021/05/14 06:20:17;;;;;;;7.60;5.25;;;;;;;9.26;77.12;100506.41;5053146;28;20498;-46
2021/05/14 06:22:43;;;;;;;7.35;5.53;;;;;;;9.30;76.86;100510.09;5053465;28;20033;-46
2021/05/14 06:25:11;;;;;;;8.32;5.40;;;;;;;9.36;76.99;100514.25;5052641;28;20144;-49
2021/05/14 06:27:38;;;;;;;8.15;5.68;;;;;;;9.44;76.94;100505.06;5052665;28;20065;-45
2021/05/14 06:30:06;;;;;;;9.85;5.25;;;;;;;9.49;77.08;100499.31;5054614;28;20049;-48
2021/05/14 06:32:33;;;;;;;7.20;5.40;;;;;;;9.63;77.20;100508.09;5052088;28;20040;-48
2021/05/14 06:35:00;;;;;;;8.57;5.50;;;;;;;9.83;77.00;100507.16;5051959;28;20044;-47
2021/05/14 06:37:26;;;;;;;8.77;5.75;;;;;;;10.04;76.72;100505.06;5053115;28;20068;-49
2021/05/14 06:39:53;;;;;;;10.10;5.75;;;;;;;10.20;76.51;100499.66;5052749;28;20049;-46
2021/05/14 06:42:20;;;;;;;8.23;6.43;;;;;;;10.30;76.37;100507.47;5052632;28;20045;-49
2021/05/14 06:44:47;;;;;;;9.57;6.28;;;;;;;10.42;76.14;100506.66;5052821;28;20071;-46
2021/05/14 06:47:14;;;;;;;11.68;6.80;;;;;;;10.50;76.00;100514.00;5052789;28;20073;-49
2021/05/14 06:49:41;;;;;;;11.05;7.68;;;;;;;10.60;76.02;100511.56;5052826;28;20099;-45
2021/05/14 06:52:08;;;;;;;12.80;7.00;;;;;;;10.71;75.89;100515.44;5034562;28;20103;-47
2021/05/14 06:54:35;;;;;;;12.98;8.20;;;;;;;10.77;75.63;100516.81;5052519;28;20048;-46
2021/05/14 06:57:02;;;;;;;11.85;7.65;;;;;;;10.78;75.68;100515.66;5056153;28;20509;-48
2021/05/14 06:59:29;;;;;;;14.90;8.98;;;;;;;10.80;75.88;100512.53;5053107;28;20560;-46
2021/05/14 07:01:57;;;;;;;14.35;8.63;;;;;;;10.92;75.89;100518.03;5039575;28;20045;-47
2021/05/14 07:04:25;;;;;;;12.77;8.45;;;;;;;11.03;75.63;100508.03;5036114;28;20048;-46
2021/05/14 07:06:53;;;;;;;14.18;8.40;;;;;;;11.14;75.62;100505.56;5051801;28;20461;-50
2021/05/14 07:09:24;;;;;;;13.68;9.02;;;;;;;11.30;75.38;100509.16;5052328;28;20041;-45
2021/05/14 07:11:50;;;;;;;13.00;8.55;;;;;;;11.30;75.03;100498.91;5052660;28;20103;-47
2021/05/14 07:14:18;;;;;;;14.82;8.93;;;;;;;11.35;75.12;100506.94;5050795;28;20441;-46
2021/05/14 07:16:45;;;;;;;14.20;8.35;;;;;;;11.40;75.03;100509.44;5051399;28;20092;-46
2021/05/14 07:19:13;;;;;;;12.85;8.48;;;;;;;11.46;74.69;100508.00;5052438;28;20068;-50
2021/05/14 07:21:41;;;;;;;11.73;7.97;;;;;;;11.48;74.11;100499.34;5051947;28;20384;-48
2021/05/14 07:24:09;;;;;;;13.10;8.48;;;;;;;11.43;73.70;100497.66;5031497;28;20155;-46
2021/05/14 07:26:36;;;;;;;12.13;9.07;;;;;;;11.36;73.41;100491.91;5041236;28;20098;-46
2021/05/14 07:29:06;;;;;;;12.70;7.28;;;;;;;11.34;73.26;100501.75;5027491;28;20405;-50
2021/05/14 07:31:33;;;;;;;13.27;8.45;;;;;;;11.40;73.48;100492.00;5054307;28;20483;-48
2021/05/14 07:34:00;;;;;;;12.25;8.18;;;;;;;11.47;74.02;100498.53;5048704;28;20045;-48
2021/05/14 07:36:27;;;;;;;12.07;8.77;;;;;;;11.62;74.06;100497.72;5047216;28;20044;-46
2021/05/14 07:38:55;;;;;;;14.13;8.25;;;;;;;11.76;74.13;100499.28;5048601;28;20033;-51
2021/05/14 07:41:22;;;;;;;13.68;7.70;;;;;;;11.78;73.34;100499.75;5047920;28;20128;-46
2021/05/14 07:43:49;;;;;;;10.93;7.22;;;;;;;11.85;73.00;100502.69;5050413;28;20547;-49
2021/05/14 07:46:16;;;;;;;11.73;6.47;;;;;;;11.97;72.83;100491.47;5053948;28;20049;-47
2021/05/14 07:48:43;;;;;;;8.48;6.40;;;;;;;12.12;72.70;100488.69;5050130;28;20068;-48
2021/05/14 07:51:10;;;;;;;8.15;6.30;;;;;;;12.20;72.63;100492.41;5047823;28;20140;-48
2021/05/14 07:53:37;;;;;;;10.00;6.22;;;;;;;12.28;72.33;100494.19;5050283;28;20080;-45
2021/05/14 07:56:04;;;;;;;7.93;4.90;;;;;;;12.36;72.07;100490.41;5048278;28;20482;-46
2021/05/14 07:58:30;;;;;;;9.73;5.72;;;;;;;12.30;71.73;100497.41;5047710;28;20509;-48
2021/05/14 08:01:00;;;;;;;5.90;4.88;;;;;;;12.39;71.83;100495.19;5047162;28;20465;-46
2021/05/14 08:03:27;;;;;;;5.30;4.35;;;;;;;12.69;72.41;100493.47;5034254;28;20040;-46
2021/05/14 08:05:54;;;;;;;6.78;5.20;;;;;;;12.89;71.74;100496.25;5030902;28;20095;-47
2021/05/14 08:08:23;;;;;;;9.77;5.22;;;;;;;13.07;71.21;100489.91;5049685;28;20075;-50
2021/05/14 08:10:55;;;;;;;6.88;5.35;;;;;;;13.33;69.86;100491.97;5049059;28;20064;-46
2021/05/14 08:13:24;;;;;;;6.47;5.25;;;;;;;13.72;70.30;100484.28;5033902;28;20029;-47
2021/05/14 08:15:51;;;;;;;6.93;4.25;;;;;;;13.93;69.76;100488.22;5048357;28;20461;-46
2021/05/14 08:18:18;;;;;;;9.20;5.45;;;;;;;14.02;69.03;100496.31;5048782;28;20049;-46
2021/05/14 08:20:46;;;;;;;5.25;4.65;;;;;;;14.14;68.29;100495.31;5035253;28;20079;-49
2021/05/14 08:23:17;;;;;;;6.65;4.43;;;;;;;14.21;67.44;100492.63;5049123;28;20041;-46
2021/05/14 08:25:44;;;;;;;6.05;5.45;;;;;;;14.24;67.34;100494.66;5048691;28;20044;-47
2021/05/14 08:28:12;;;;;;;6.13;4.88;;;;;;;14.21;67.14;100489.84;5050828;28;20107;-47
2021/05/14 08:30:40;;;;;;;5.88;5.10;;;;;;;14.25;67.18;100496.25;5048626;28;20043;-49
2021/05/14 08:33:07;;;;;;;7.35;5.45;;;;;;;14.23;66.86;100491.06;5048618;28;20044;-46
2021/05/14 08:35:36;;;;;;;5.70;5.20;;;;;;;14.17;66.69;100491.75;5048484;28;20670;-49
2021/05/14 08:38:04;;;;;;;7.55;5.53;;;;;;;14.12;66.42;100486.50;5049544;28;20409;-46
2021/05/14 08:40:33;;;;;;;10.55;6.70;;;;;;;14.09;66.08;100487.25;5048561;28;20140;-45
2021/05/14 08:43:01;;;;;;;11.05;7.82;;;;;;;14.11;66.15;100484.94;5048942;28;20099;-46
2021/05/14 08:45:29;;;;;;;14.25;8.05;;;;;;;14.10;65.93;100483.31;5050030;28;20499;-46
2021/05/14 08:47:57;;;;;;;16.65;9.77;;;;;;;14.15;65.76;100488.56;5048696;28;20410;-46
2021/05/14 08:50:29;;;;;;;14.68;9.23;;;;;;;14.11;65.61;100479.34;5048304;28;20181;-47
2021/05/14 08:52:57;;;;;;;12.82;9.45;;;;;;;14.34;65.98;100466.19;5053079;28;20053;-49
2021/05/14 08:55:24;;;;;;;13.77;9.88;;;;;;;14.52;65.60;100470.00;5061785;28;20444;-50
2021/05/14 08:57:53;;;;;;;16.70;11.38;;;;;;;14.81;65.43;100469.19;5051590;28;20103;-49
2021/05/14 09:00:20;;;;;;;14.75;11.55;;;;;;;15.23;65.21;100466.03;5053070;28;20136;-48
2021/05/14 09:02:50;;;;;;;16.33;11.38;;;;;;;15.80;64.55;100464.59;5052370;28;20135;-46
2021/05/14 09:05:33;;;;;;;15.55;11.00;;;;;;;16.48;62.71;100460.22;5053176;28;20033;-49
2021/05/14 09:08:01;;;;;;;13.57;10.52;;;;;;;16.97;62.46;100452.09;5053910;28;20095;-49
2021/05/14 09:10:34;;;;;;;17.05;11.30;;;;;;;17.41;61.53;100463.75;5052707;28;20041;-51
2021/05/14 09:13:10;;;;;;;16.15;11.60;;;;;;;17.67;59.60;100453.38;5066924;28;20053;-52
2021/05/14 09:15:40;;;;;;;13.13;10.13;;;;;;;18.15;59.31;100458.16;5044361;28;20558;-55
2021/05/14 09:18:19;;;;;;;12.68;9.80;;;;;;;18.69;57.57;100454.00;5050718;28;20098;-48
2021/05/14 09:20:59;;;;;;;14.30;9.18;;;;;;;19.13;56.12;100456.19;5052176;28;20041;-51
2021/05/14 09:23:35;;;;;;;11.23;8.18;;;;;;;19.61;52.04;100449.88;5052971;28;20128;-46
2021/05/14 09:26:04;;;;;;;12.63;8.05;;;;;;;19.72;54.99;100448.56;5034052;28;20086;-53
2021/05/14 09:28:33;;;;;;;8.63;6.95;;;;;;;19.98;53.55;100445.13;5052062;28;20106;-49
2021/05/14 09:31:04;;;;;;;9.75;8.27;;;;;;;20.09;53.46;100441.41;5052547;28;20041;-48
2021/05/14 09:33:32;;;;;;;8.98;8.07;;;;;;;19.64;52.63;100427.38;5052761;28;20128;-49
2021/05/14 09:36:01;;;;;;;10.85;8.52;;;;;;;18.99;52.91;100433.81;5051969;28;20049;-47
2021/05/14 09:38:38;;;;;;;9.15;8.20;;;;;;;18.52;52.82;100438.06;5052456;28;20045;-49
2021/05/14 09:41:06;;;;;;;9.73;7.90;;;;;;;18.04;53.42;100429.34;5052325;28;20045;-52
2021/05/14 09:43:54;;;;;;;11.45;7.43;;;;;;;17.42;53.60;100423.34;5035201;28;20044;-51
2021/05/14 09:46:45;;;;;;;9.13;6.85;;;;;;;17.04;54.11;100421.31;5053100;28;20069;-46
2021/05/14 09:49:20;;;;;;;8.73;6.97;;;;;;;16.76;55.13;100421.25;5051827;28;20194;-46
2021/05/14 09:51:57;;;;;;;10.98;7.20;;;;;;;16.62;55.48;100426.78;5051047;28;20053;-46
2021/05/14 09:54:36;;;;;;;8.52;6.88;;;;;;;16.53;55.68;100423.56;5053181;28;20080;-46
2021/05/14 09:57:14;;;;;;;;;;;;;;;16.32;56.14;100419.44;5051953;28;20062;-48
2021/05/14 09:59:42;;;;;;;7.10;6.00;;;;;;;16.20;56.43;100421.78;5052469;28;19968;-49
2021/05/14 10:02:33;;;;;;;10.60;6.72;;;;;;;16.01;56.90;100411.72;5050788;28;20048;-49
2021/05/14 10:05:06;;;;;;;9.02;6.47;;;;;;;16.07;56.82;100407.34;5039544;28;20505;-47
2021/05/14 10:07:35;;;;;;;10.80;7.43;;;;;;;16.14;56.84;100407.38;5050057;28;20092;-49
2021/05/14 10:10:06;;;;;;;8.73;5.88;;;;;;;16.31;56.85;100401.06;5051756;28;20114;-48
2021/05/14 10:12:36;;;;;;;6.68;6.05;;;;;;;16.56;56.71;100403.22;5051609;28;20068;-48
2021/05/14 10:15:07;;;;;;;7.20;6.50;;;;;;;16.62;56.44;100402.44;5050216;28;20041;-47
2021/05/14 10:17:39;;;;;;;9.82;6.45;;;;;;;16.55;56.65;100404.41;5051310;28;20071;-46
2021/05/14 10:20:19;;;;;;;9.77;6.97;;;;;;;16.41;56.55;100399.53;5051230;28;20045;-51
2021/05/14 10:22:49;;;;;;;9.75;6.55;;;;;;;16.24;56.78;100401.06;5051671;28;20064;-50
2021/05/14 10:25:34;;;;;;;8.57;6.95;;;;;;;15.99;57.19;100399.31;5050452;28;20045;-48
2021/05/14 10:28:13;;;;;;;7.72;6.07;;;;;;;15.88;57.78;100404.84;5052134;28;20044;-49
2021/05/14 10:30:58;;;;;;;8.02;6.13;;;;;;;15.82;57.75;100395.22;5035501;28;20440;-46
2021/05/14 10:33:41;;;;;;;7.57;6.57;;;;;;;15.78;57.84;100394.38;5043706;28;20060;-49
2021/05/14 10:36:37;;;;;;;8.35;6.15;;;;;;;15.82;57.76;100392.44;5053995;28;20098;-48
2021/05/14 10:39:36;;;;;;;8.32;6.05;;;;;;;16.06;57.35;100388.19;5013620;28;20060;-48
2021/05/14 10:42:12;;;;;;;6.90;4.97;;;;;;;16.40;57.38;100379.19;5042657;28;20102;-46
2021/05/14 10:44:43;;;;;;;9.13;5.65;;;;;;;16.66;57.38;100378.09;5033772;28;20036;-48
2021/05/14 10:47:26;;;;;;;10.13;6.32;;;;;;;16.89;57.18;100372.16;5050737;28;20093;-47
2021/05/14 10:50:15;;;;;;;;;;;;;;;16.89;57.05;100366.56;5051900;28;20454;-47
2021/05/14 10:53:17;;;;;;;5.78;5.18;;;;;;;16.84;57.08;100375.31;5051334;28;20408;-46
2021/05/14 10:55:48;;;;;;;7.50;4.63;;;;;;;16.71;57.38;100365.72;5022600;28;20045;-46
2021/05/14 10:58:46;;;;;;;7.88;5.15;;;;;;;16.81;56.34;100357.34;5050013;28;20410;-46
2021/05/14 11:01:30;;;;;;;5.38;4.80;;;;;;;17.07;56.32;100352.59;5050801;28;20040;-46
2021/05/14 11:03:58;;;;;;;7.15;4.55;;;;;;;17.17;56.40;100352.59;5050244;28;20084;-49
2021/05/14 11:06:25;;;;;;;8.07;4.47;;;;;;;17.38;56.24;100357.41;5051260;28;20087;-48
2021/05/14 11:09:16;;;;;;;4.32;3.63;;;;;;;17.31;54.45;100346.22;5050898;28;20122;-47
2021/05/14 11:11:59;;;;;;;4.85;3.85;;;;;;;17.31;55.69;100340.63;5050748;28;20060;-45
2021/05/14 11:14:45;;;;;;;4.88;4.05;;;;;;;17.50;54.81;100338.19;5049364;28;20080;-49
2021/05/14 11:17:18;;;;;;;7.15;4.18;;;;;;;17.48;56.04;100339.78;5048973;28;20418;-48
2021/05/14 11:19:49;;;;;;;6.40;4.20;;;;;;;17.28;55.76;100333.81;5035283;28;20055;-49
2021/05/14 11:22:22;;;;;;;5.45;4.43;;;;;;;17.07;55.65;100345.00;5050095;28;20045;-46
2021/05/14 11:24:49;;;;;;;7.80;4.50;;;;;;;16.85;55.72;100335.00;5050420;28;20098;-46
2021/05/14 11:27:28;;;;;;;5.03;3.75;;;;;;;16.61;55.42;100324.56;5054968;28;20049;-48
2021/05/14 11:29:57;;;;;;;7.18;5.32;;;;;;;16.29;56.03;100325.25;5052869;28;20098;-48
2021/05/14 11:32:34;;;;;;;9.68;7.18;;;;;;;16.06;57.03;100321.97;5050326;28;20056;-46
2021/05/14 11:35:17;;;;;;;9.25;6.70;;;;;;;15.93;57.23;100323.50;5050703;28;20049;-46
2021/05/14 11:37:54;;;;;;;9.40;6.65;;;;;;;16.07;57.94;100323.56;5049637;28;20103;-49
2021/05/14 11:40:36;;;;;;;9.98;6.30;;;;;;;16.40;58.00;100314.91;5048687;28;20493;-49
2021/05/14 11:43:11;;;;;;;10.27;7.25;;;;;;;16.57;57.88;100313.41;5049992;28;20057;-53